createdAt,value
2023-04-10T00:00:49.895Z,100.00
2023-04-10T00:03:19.399Z,100.00
2023-04-10T00:05:47.745Z,100.00
2023-04-10T00:08:15.825Z,100.00
2023-04-10T00:10:44.018Z,100.00
2023-04-10T00:13:12.182Z,100.00
2023-04-10T00:15:40.226Z,100.00
2023-04-10T00:18:09.838Z,100.00
2023-04-10T00:20:38.031Z,100.00
2023-04-10T00:23:06.253Z,100.00
2023-04-10T00:25:34.376Z,100.00
2023-04-10T00:28:02.526Z,100.00
2023-04-10T00:30:30.969Z,100.00
2023-04-10T00:32:59.136Z,100.00
2023-04-10T00:35:28.657Z,100.00
2023-04-10T00:37:57.487Z,100.00
2023-04-10T00:40:25.808Z,100.00
2023-04-10T00:42:54.007Z,100.00
2023-04-10T00:45:22.305Z,100.00
2023-04-10T00:47:50.495Z,100.00
2023-04-10T00:50:18.854Z,100.00
2023-04-10T00:52:49.279Z,100.00
2023-04-10T00:55:17.572Z,100.00
2023-04-10T00:57:47.344Z,100.00
2023-04-10T01:00:16.656Z,100.00
2023-04-10T01:02:45.062Z,100.00
2023-04-10T01:05:14.756Z,100.00
2023-04-10T01:07:59.774Z,100.00
2023-04-10T01:10:33.896Z,100.00
2023-04-10T01:13:12.581Z,100.00
2023-04-10T01:15:47.832Z,100.00
2023-04-10T01:18:24.085Z,100.00
2023-04-10T01:20:52.068Z,100.00
2023-04-10T01:23:46.974Z,100.00
2023-04-10T01:26:17.481Z,100.00
2023-04-10T01:29:01.720Z,100.00
2023-04-10T01:31:37.805Z,100.00
2023-04-10T01:34:10.605Z,100.00
2023-04-10T01:36:49.108Z,100.00
2023-04-10T01:39:20.412Z,100.00
2023-04-10T01:41:51.889Z,100.00
2023-04-10T01:44:28.281Z,100.00
2023-04-10T01:46:58.246Z,100.00
2023-04-10T01:49:29.637Z,100.00
2023-04-10T01:52:07.040Z,100.00
2023-04-10T01:54:36.688Z,100.00
2023-04-10T01:57:06.563Z,100.00
2023-04-10T01:59:52.410Z,100.00
2023-04-10T02:02:21.112Z,100.00
2023-04-10T02:04:51.759Z,100.00
2023-04-10T02:07:26.676Z,100.00
2023-04-10T02:10:01.237Z,100.00
2023-04-10T02:12:32.074Z,100.00
2023-04-10T02:15:03.899Z,100.00
2023-04-10T02:17:33.033Z,100.00
2023-04-10T02:20:01.824Z,100.00
2023-04-10T02:22:30.292Z,100.00
2023-04-10T02:25:00.307Z,100.00
2023-04-10T02:27:30.163Z,100.00
2023-04-10T02:30:00.215Z,100.00
2023-04-10T02:32:30.665Z,100.00
2023-04-10T02:34:58.723Z,100.00
2023-04-10T02:37:26.975Z,100.00
2023-04-10T02:39:55.794Z,100.00
2023-04-10T02:42:25.949Z,100.00
2023-04-10T02:44:57.477Z,100.00
2023-04-10T02:47:27.130Z,100.00
2023-04-10T02:49:57.105Z,100.00
2023-04-10T02:52:28.710Z,100.00
2023-04-10T02:54:57.041Z,100.00
2023-04-10T02:57:27.339Z,100.00
2023-04-10T02:59:56.011Z,100.00
2023-04-10T03:02:26.679Z,100.00
2023-04-10T03:04:57.736Z,100.00
2023-04-10T03:07:26.113Z,100.00
2023-04-10T03:09:54.691Z,100.00
2023-04-10T03:12:23.274Z,100.00
2023-04-10T03:14:51.556Z,100.00
2023-04-10T03:17:19.711Z,100.00
2023-04-10T03:19:47.816Z,100.00
2023-04-10T03:22:17.171Z,100.00
2023-04-10T03:24:45.851Z,100.00
2023-04-10T03:27:14.128Z,100.00
2023-04-10T03:29:42.317Z,100.00
2023-04-10T03:32:10.856Z,100.00
2023-04-10T03:34:38.940Z,100.00
2023-04-10T03:37:07.076Z,100.00
2023-04-10T03:39:37.370Z,100.00
2023-04-10T03:42:05.628Z,100.00
2023-04-10T03:44:34.345Z,100.00
2023-04-10T03:47:03.701Z,100.00
2023-04-10T03:49:32.484Z,100.00
2023-04-10T03:52:06.000Z,100.00
2023-04-10T03:54:34.128Z,100.00
2023-04-10T03:57:03.734Z,100.00
2023-04-10T03:59:38.701Z,100.00
2023-04-10T04:02:11.392Z,100.00
2023-04-10T04:04:40.393Z,100.00
2023-04-10T04:07:34.494Z,100.00
2023-04-10T04:10:14.237Z,100.00
2023-04-10T04:13:03.213Z,100.00
2023-04-10T04:16:04.538Z,100.00
2023-04-10T04:18:47.329Z,100.00
2023-04-10T04:21:41.474Z,100.00
2023-04-10T04:24:32.810Z,100.00
2023-04-10T04:27:14.822Z,100.00
2023-04-10T04:30:03.401Z,100.00
2023-04-10T04:32:56.105Z,100.00
2023-04-10T04:35:42.690Z,100.00
2023-04-10T04:38:30.433Z,100.00
2023-04-10T04:41:21.460Z,100.00
2023-04-10T04:44:08.045Z,100.00
2023-04-10T04:47:00.669Z,100.00
2023-04-10T04:49:40.895Z,100.00
2023-04-10T04:52:28.458Z,100.00
2023-04-10T04:55:08.747Z,100.00
2023-04-10T04:57:58.382Z,100.00
2023-04-10T05:00:42.759Z,100.00
2023-04-10T05:03:34.162Z,100.00
2023-04-10T05:06:24.676Z,100.00
2023-04-10T05:09:11.683Z,100.00
2023-04-10T05:12:12.155Z,100.00
2023-04-10T05:15:03.580Z,100.00
2023-04-10T05:17:42.958Z,100.00
2023-04-10T05:20:38.970Z,100.00
2023-04-10T05:23:21.602Z,100.00
2023-04-10T05:26:15.976Z,100.00
2023-04-10T05:29:07.025Z,100.00
2023-04-10T05:31:53.633Z,100.00
2023-04-10T05:34:41.941Z,100.00
2023-04-10T05:37:15.153Z,100.00
2023-04-10T05:39:55.718Z,100.00
2023-04-10T05:42:53.839Z,100.00
2023-04-10T05:45:54.472Z,100.00
2023-04-10T05:48:45.738Z,100.00
2023-04-10T05:51:42.680Z,100.00
2023-04-10T05:54:38.446Z,100.00
2023-04-10T05:57:27.054Z,100.00
2023-04-10T05:59:55.138Z,100.00
2023-04-10T06:02:42.126Z,100.00
2023-04-10T06:05:18.390Z,100.00
2023-04-10T06:07:47.012Z,100.00
2023-04-10T06:10:17.469Z,100.00
2023-04-10T06:12:46.034Z,100.00
2023-04-10T06:15:14.888Z,100.00
2023-04-10T06:17:44.789Z,100.00
2023-04-10T06:20:13.674Z,100.00
2023-04-10T06:22:41.881Z,100.00
2023-04-10T06:25:10.913Z,100.00
2023-04-10T06:27:40.425Z,100.00
2023-04-10T06:30:11.731Z,100.00
2023-04-10T06:32:39.891Z,100.00
2023-04-10T06:35:09.024Z,100.00
2023-04-10T06:37:37.159Z,100.00
2023-04-10T06:40:08.188Z,100.00
2023-04-10T06:42:36.550Z,100.00
2023-04-10T06:45:17.662Z,100.00
2023-04-10T06:47:45.790Z,100.00
2023-04-10T06:50:13.959Z,100.00
2023-04-10T06:52:42.026Z,100.00
2023-04-10T06:55:10.906Z,100.00
2023-04-10T06:57:38.927Z,100.00
2023-04-10T07:00:08.375Z,97.11
2023-04-10T07:02:37.890Z,96.85
2023-04-10T07:05:06.755Z,94.36
2023-04-10T07:07:34.966Z,96.68
2023-04-10T07:10:02.995Z,91.62
2023-04-10T07:12:31.233Z,86.09
2023-04-10T07:14:59.503Z,82.27
2023-04-10T07:17:27.772Z,82.18
2023-04-10T07:19:57.319Z,83.14
2023-04-10T07:22:25.404Z,78.12
2023-04-10T07:24:53.584Z,72.44
2023-04-10T07:27:23.260Z,57.31
2023-04-10T07:29:51.462Z,49.65
2023-04-10T07:32:19.703Z,46.18
2023-04-10T07:34:48.433Z,41.64
2023-04-10T07:37:18.180Z,37.63
2023-04-10T07:39:46.494Z,37.70
2023-04-10T07:42:14.852Z,36.05
2023-04-10T07:44:42.958Z,35.92
2023-04-10T07:47:11.598Z,36.07
2023-04-10T07:49:39.720Z,36.30
2023-04-10T07:52:07.907Z,35.55
2023-04-10T07:54:37.673Z,32.26
2023-04-10T07:57:05.787Z,29.65
2023-04-10T07:59:33.917Z,30.97
2023-04-10T08:02:02.206Z,29.09
2023-04-10T08:04:30.687Z,29.59
2023-04-10T08:06:58.998Z,30.40
2023-04-10T08:09:27.126Z,28.63
2023-04-10T08:11:58.155Z,28.82
2023-04-10T08:14:26.313Z,28.79
2023-04-10T08:16:54.656Z,27.15
2023-04-10T08:19:22.897Z,25.89
2023-04-10T08:21:51.046Z,25.88
2023-04-10T08:24:20.258Z,26.30
2023-04-10T08:26:48.488Z,26.44
2023-04-10T08:29:17.985Z,26.92
2023-04-10T08:31:46.021Z,26.16
2023-04-10T08:34:14.222Z,26.95
2023-04-10T08:36:42.384Z,25.58
2023-04-10T08:39:10.627Z,24.68
2023-04-10T08:41:42.114Z,25.05
2023-04-10T08:44:10.304Z,23.56
2023-04-10T08:46:43.622Z,20.73
2023-04-10T08:49:16.473Z,20.40
2023-04-10T08:51:49.076Z,22.03
2023-04-10T08:54:20.815Z,22.10
2023-04-10T08:56:52.367Z,21.85
2023-04-10T08:59:20.900Z,21.05
2023-04-10T09:01:50.685Z,23.09
2023-04-10T09:04:19.040Z,22.10
2023-04-10T09:06:48.309Z,23.43
2023-04-10T09:09:16.543Z,21.95
2023-04-10T09:12:02.657Z,21.45
2023-04-10T09:14:32.110Z,22.79
2023-04-10T09:17:16.308Z,22.36
2023-04-10T09:19:45.793Z,22.63
2023-04-10T09:22:14.204Z,20.77
2023-04-10T09:24:43.895Z,22.19
2023-04-10T09:27:12.511Z,23.34
2023-04-10T09:29:43.427Z,25.81
2023-04-10T09:32:11.698Z,24.91
2023-04-10T09:34:57.255Z,23.73
2023-04-10T09:37:32.736Z,23.04
2023-04-10T09:40:01.082Z,25.24
2023-04-10T09:42:33.773Z,27.02
2023-04-10T09:45:02.638Z,26.09
2023-04-10T09:47:31.165Z,24.66
2023-04-10T09:50:02.164Z,22.90
2023-04-10T09:52:31.238Z,22.63
2023-04-10T09:55:01.082Z,22.83
2023-04-10T09:57:31.022Z,23.98
2023-04-10T10:00:01.269Z,22.63
2023-04-10T10:02:39.130Z,20.99
2023-04-10T10:05:10.301Z,21.91
2023-04-10T10:07:39.957Z,24.22
2023-04-10T10:10:09.418Z,24.18
2023-04-10T10:12:45.067Z,23.97
2023-04-10T10:15:19.184Z,23.59
2023-04-10T10:17:57.522Z,21.76
2023-04-10T10:20:28.247Z,22.69
2023-04-10T10:22:57.613Z,20.32
2023-04-10T10:25:26.426Z,24.41
2023-04-10T10:27:55.512Z,28.48
2023-04-10T10:30:30.076Z,31.96
2023-04-10T10:33:00.431Z,32.67
2023-04-10T10:35:32.737Z,26.44
2023-04-10T10:38:02.391Z,29.01
2023-04-10T10:40:34.099Z,31.67
2023-04-10T10:43:10.317Z,31.45
2023-04-10T10:45:45.431Z,27.08
2023-04-10T10:48:13.547Z,22.16
2023-04-10T10:50:59.518Z,24.21
2023-04-10T10:53:35.630Z,23.60
2023-04-10T10:56:35.088Z,27.60
2023-04-10T10:59:03.468Z,23.97
2023-04-10T11:01:31.726Z,23.20
2023-04-10T11:04:01.456Z,22.02
2023-04-10T11:06:53.115Z,20.97
2023-04-10T11:09:59.694Z,20.69
2023-04-10T11:12:30.588Z,22.75
2023-04-10T11:15:00.712Z,25.86
2023-04-10T11:17:48.788Z,22.44
2023-04-10T11:20:17.294Z,26.76
2023-04-10T11:23:12.898Z,28.59
2023-04-10T11:25:49.540Z,29.10
2023-04-10T11:28:40.002Z,27.43
2023-04-10T11:31:23.155Z,25.09
2023-04-10T11:34:01.612Z,26.24
2023-04-10T11:36:29.976Z,24.40
2023-04-10T11:39:00.657Z,26.13
2023-04-10T11:41:30.938Z,26.40
2023-04-10T11:43:59.633Z,26.24
2023-04-10T11:46:28.122Z,23.52
2023-04-10T11:48:58.560Z,20.60
2023-04-10T11:51:28.459Z,22.72
2023-04-10T11:54:09.227Z,26.10
2023-04-10T11:56:38.536Z,24.49
2023-04-10T11:59:10.828Z,25.69
2023-04-10T12:01:42.115Z,21.94
2023-04-10T12:04:18.427Z,21.47
2023-04-10T12:06:47.372Z,23.06
2023-04-10T12:09:18.152Z,23.90
2023-04-10T12:11:52.037Z,27.21
2023-04-10T12:14:21.733Z,29.78
2023-04-10T12:16:50.523Z,29.14
2023-04-10T12:19:19.428Z,30.97
2023-04-10T12:21:47.808Z,34.07
2023-04-10T12:24:44.509Z,35.97
2023-04-10T12:27:19.225Z,37.08
2023-04-10T12:29:48.063Z,34.70
2023-04-10T12:32:16.720Z,30.95
2023-04-10T12:34:51.512Z,30.17
2023-04-10T12:37:20.126Z,26.49
2023-04-10T12:39:50.003Z,25.21
2023-04-10T12:42:20.934Z,23.05
2023-04-10T12:44:53.925Z,20.95
2023-04-10T12:47:22.549Z,23.41
2023-04-10T12:50:11.430Z,25.66
2023-04-10T12:52:44.311Z,23.80
2023-04-10T12:55:16.032Z,25.57
2023-04-10T12:57:46.149Z,22.96
2023-04-10T13:00:17.153Z,25.96
2023-04-10T13:02:46.331Z,27.13
2023-04-10T13:05:14.907Z,28.74
2023-04-10T13:07:43.301Z,26.32
2023-04-10T13:10:11.816Z,24.24
2023-04-10T13:12:42.181Z,24.61
2023-04-10T13:15:11.698Z,23.24
2023-04-10T13:17:41.283Z,23.76
2023-04-10T13:20:13.619Z,25.00
2023-04-10T13:22:41.852Z,23.70
2023-04-10T13:25:10.595Z,25.74
2023-04-10T13:27:38.889Z,23.85
2023-04-10T13:30:09.994Z,26.50
2023-04-10T13:32:38.497Z,25.30
2023-04-10T13:35:07.500Z,26.15
2023-04-10T13:37:35.985Z,26.79
2023-04-10T13:40:05.198Z,22.90
2023-04-10T13:42:33.689Z,24.86
2023-04-10T13:45:02.863Z,23.83
2023-04-10T13:47:32.671Z,23.15
2023-04-10T13:50:00.965Z,22.32
2023-04-10T13:52:29.256Z,22.38
2023-04-10T13:54:57.562Z,22.31
2023-04-10T13:57:25.884Z,24.45
2023-04-10T13:59:54.450Z,24.08
2023-04-10T14:02:22.900Z,22.98
2023-04-10T14:04:52.614Z,26.20
2023-04-10T14:07:21.035Z,23.78
2023-04-10T14:09:49.339Z,26.40
2023-04-10T14:12:19.272Z,28.36
2023-04-10T14:14:47.598Z,26.87
2023-04-10T14:17:15.935Z,27.15
2023-04-10T14:19:46.503Z,31.12
2023-04-10T14:22:16.128Z,31.43
2023-04-10T14:24:44.342Z,32.16
2023-04-10T14:27:13.414Z,32.70
2023-04-10T14:29:50.665Z,33.38
2023-04-10T14:32:23.175Z,32.27
2023-04-10T14:34:51.494Z,32.35
2023-04-10T14:37:22.557Z,33.52
2023-04-10T14:39:50.784Z,31.55
2023-04-10T14:42:19.192Z,30.91
2023-04-10T14:44:47.407Z,33.32
2023-04-10T14:47:15.749Z,34.27
2023-04-10T14:49:44.186Z,33.32
2023-04-10T14:52:12.483Z,33.25
2023-04-10T14:54:42.328Z,33.16
2023-04-10T14:57:11.124Z,33.27
2023-04-10T14:59:39.540Z,33.16
2023-04-10T15:02:08.348Z,33.85
2023-04-10T15:04:37.279Z,35.97
2023-04-10T15:07:05.590Z,35.71
2023-04-10T15:09:34.087Z,35.02
2023-04-10T15:12:03.902Z,34.50
2023-04-10T15:14:32.461Z,35.23
2023-04-10T15:17:00.883Z,36.20
2023-04-10T15:19:29.262Z,36.89
2023-04-10T15:21:57.620Z,36.57
2023-04-10T15:24:26.440Z,36.66
2023-04-10T15:26:56.458Z,36.73
2023-04-10T15:29:26.240Z,37.30
2023-04-10T15:31:54.891Z,36.30
2023-04-10T15:34:23.088Z,35.97
2023-04-10T15:36:51.281Z,36.90
2023-04-10T15:39:19.898Z,37.57
2023-04-10T15:41:50.192Z,36.86
2023-04-10T15:44:18.592Z,37.06
2023-04-10T15:46:48.300Z,37.35
2023-04-10T15:49:29.743Z,37.46
2023-04-10T15:52:02.889Z,38.37
2023-04-10T15:54:31.190Z,37.32
2023-04-10T15:56:59.540Z,37.54
2023-04-10T15:59:28.138Z,38.21
2023-04-10T16:01:58.367Z,37.95
2023-04-10T16:04:26.898Z,38.20
2023-04-10T16:06:56.384Z,38.53
2023-04-10T16:09:26.791Z,39.91
2023-04-10T16:11:56.442Z,38.96
2023-04-10T16:14:25.124Z,38.73
2023-04-10T16:16:53.335Z,39.81
2023-04-10T16:19:23.169Z,39.41
2023-04-10T16:21:52.025Z,39.48
2023-04-10T16:24:20.754Z,39.52
2023-04-10T16:26:49.184Z,40.60
2023-04-10T16:29:19.944Z,40.71
2023-04-10T16:31:48.327Z,39.96
2023-04-10T16:34:16.667Z,40.00
2023-04-10T16:36:47.112Z,40.86
2023-04-10T16:39:15.894Z,41.15
2023-04-10T16:41:45.121Z,40.51
2023-04-10T16:44:13.666Z,41.86
2023-04-10T16:46:42.055Z,41.70
2023-04-10T16:49:10.633Z,41.87
2023-04-10T16:51:38.997Z,42.10
2023-04-10T16:54:09.220Z,41.87
2023-04-10T16:56:37.549Z,42.37
2023-04-10T16:59:06.031Z,42.59
2023-04-10T17:01:40.022Z,42.60
2023-04-10T17:04:09.612Z,43.02
2023-04-10T17:06:38.250Z,43.71
2023-04-10T17:09:06.797Z,45.93
2023-04-10T17:11:36.565Z,46.11
2023-04-10T17:14:06.217Z,44.80
2023-04-10T17:16:34.857Z,46.66
2023-04-10T17:19:03.364Z,47.70
2023-04-10T17:21:31.791Z,50.40
2023-04-10T17:24:00.267Z,52.06
2023-04-10T17:26:28.856Z,51.90
2023-04-10T17:28:58.804Z,52.97
2023-04-10T17:31:27.267Z,53.81
2023-04-10T17:33:55.687Z,55.45
2023-04-10T17:36:24.775Z,56.43
2023-04-10T17:38:54.173Z,58.43
2023-04-10T17:41:22.906Z,60.14
2023-04-10T17:43:51.788Z,59.47
2023-04-10T17:46:21.944Z,59.47
2023-04-10T17:48:50.502Z,60.66
2023-04-10T17:51:18.894Z,61.56
2023-04-10T17:53:47.583Z,62.41
2023-04-10T17:56:21.362Z,63.30
2023-04-10T17:58:49.995Z,65.92
2023-04-10T18:01:29.967Z,66.21
2023-04-10T18:03:59.340Z,66.84
2023-04-10T18:06:28.126Z,67.01
2023-04-10T18:08:57.522Z,68.54
2023-04-10T18:11:26.298Z,68.82
2023-04-10T18:13:55.163Z,70.09
2023-04-10T18:16:24.154Z,70.37
2023-04-10T18:18:54.867Z,70.93
2023-04-10T18:21:23.899Z,71.67
2023-04-10T18:23:52.559Z,72.18
2023-04-10T18:26:21.589Z,73.14
2023-04-10T18:28:50.727Z,73.52
2023-04-10T18:31:20.177Z,73.56
2023-04-10T18:34:03.711Z,72.82
2023-04-10T18:36:37.764Z,73.59
2023-04-10T18:39:06.350Z,74.14
2023-04-10T18:41:34.782Z,75.09
2023-04-10T18:44:05.383Z,76.29
2023-04-10T18:46:35.338Z,76.27
2023-04-10T18:49:04.215Z,77.11
2023-04-10T18:51:35.495Z,78.24
2023-04-10T18:54:06.058Z,77.76
2023-04-10T18:56:36.131Z,78.43
2023-04-10T18:59:05.824Z,79.14
2023-04-10T19:01:35.395Z,78.25
2023-04-10T19:04:05.250Z,79.36
2023-04-10T19:06:35.800Z,80.29
2023-04-10T19:09:05.683Z,79.93
2023-04-10T19:11:35.089Z,80.66
2023-04-10T19:14:03.451Z,81.87
2023-04-10T19:19:03.946Z,83.08
2023-04-10T19:21:36.038Z,84.34
2023-04-10T19:24:07.079Z,86.30
2023-04-10T19:26:36.556Z,86.77
2023-04-10T19:29:05.818Z,85.12
2023-04-10T19:31:34.460Z,86.53
2023-04-10T19:34:09.471Z,87.24
2023-04-10T19:36:39.536Z,87.02
2023-04-10T19:39:10.087Z,87.82
2023-04-10T19:41:42.576Z,88.61
2023-04-10T19:44:11.486Z,89.61
2023-04-10T19:46:40.135Z,89.63
2023-04-10T19:49:08.768Z,89.92
2023-04-10T19:51:37.210Z,89.38
2023-04-10T19:54:06.024Z,89.31
2023-04-10T19:56:37.973Z,90.28
2023-04-10T19:59:07.205Z,89.96
2023-04-10T20:01:36.224Z,89.66
2023-04-10T20:04:05.577Z,90.40
2023-04-10T20:06:34.224Z,90.68
2023-04-10T20:09:02.836Z,90.99
2023-04-10T20:11:33.974Z,90.93
2023-04-10T20:14:04.373Z,92.10
2023-04-10T20:16:33.929Z,92.21
2023-04-10T20:19:02.786Z,93.08
2023-04-10T20:21:31.475Z,93.43
2023-04-10T20:24:00.124Z,93.80
2023-04-10T20:26:41.492Z,93.23
2023-04-10T20:29:11.510Z,94.25
2023-04-10T20:31:41.869Z,94.56
2023-04-10T20:34:16.659Z,95.58
2023-04-10T20:36:48.533Z,95.99
2023-04-10T20:39:18.585Z,96.72
2023-04-10T20:41:55.375Z,97.37
2023-04-10T20:44:25.576Z,97.45
2023-04-10T20:46:53.965Z,98.00
2023-04-10T20:49:22.869Z,99.86
2023-04-10T20:51:51.306Z,100.00
2023-04-10T20:54:23.268Z,100.00
2023-04-10T20:56:51.513Z,100.00
2023-04-10T20:59:19.930Z,100.00
2023-04-10T21:01:49.806Z,100.00
2023-04-10T21:04:17.997Z,100.00
2023-04-10T21:06:46.262Z,100.00
2023-04-10T21:09:14.716Z,100.00
2023-04-10T21:11:43.036Z,100.00
2023-04-10T21:14:11.397Z,100.00
2023-04-10T21:16:42.530Z,100.00
2023-04-10T21:19:12.831Z,100.00
2023-04-10T21:21:41.155Z,100.00
2023-04-10T21:24:09.754Z,100.00
2023-04-10T21:26:38.126Z,100.00
2023-04-10T21:29:06.549Z,100.00
2023-04-10T21:31:35.150Z,100.00
2023-04-10T21:34:03.742Z,100.00
2023-04-10T21:36:33.743Z,100.00
2023-04-10T21:39:02.226Z,100.00
2023-04-10T21:41:30.588Z,100.00
2023-04-10T21:44:00.487Z,100.00
2023-04-10T21:46:29.020Z,100.00
2023-04-10T21:48:58.098Z,100.00
2023-04-10T21:51:27.677Z,100.00
2023-04-10T21:53:57.431Z,100.00
2023-04-10T21:56:26.028Z,100.00
2023-04-10T21:58:54.658Z,100.00
2023-04-10T22:01:23.363Z,100.00
2023-04-10T22:03:52.107Z,100.00
2023-04-10T22:06:20.406Z,100.00
2023-04-10T22:08:48.767Z,100.00
2023-04-10T22:11:18.400Z,100.00
2023-04-10T22:13:46.729Z,100.00
2023-04-10T22:16:15.078Z,100.00
2023-04-10T22:18:43.383Z,100.00
2023-04-10T22:21:13.516Z,100.00
2023-04-10T22:23:41.971Z,100.00
2023-04-10T22:26:10.490Z,100.00
2023-04-10T22:28:40.378Z,100.00
2023-04-10T22:31:16.556Z,100.00
2023-04-10T22:33:45.045Z,100.00
2023-04-10T22:36:14.244Z,100.00
2023-04-10T22:38:42.644Z,100.00
2023-04-10T22:41:11.071Z,100.00
2023-04-10T22:43:40.743Z,100.00
2023-04-10T22:46:09.043Z,100.00
2023-04-10T22:48:37.514Z,100.00
2023-04-10T22:51:11.684Z,100.00
2023-04-10T22:53:40.246Z,100.00
2023-04-10T22:56:10.532Z,100.00
2023-04-10T22:58:40.870Z,100.00
2023-04-10T23:01:09.499Z,100.00
2023-04-10T23:03:37.822Z,100.00
2023-04-10T23:06:06.524Z,100.00
2023-04-10T23:08:35.065Z,100.00
2023-04-10T23:11:03.819Z,100.00
2023-04-10T23:13:32.159Z,100.00
2023-04-10T23:16:02.347Z,100.00
2023-04-10T23:18:30.730Z,100.00
2023-04-10T23:20:59.008Z,100.00
2023-04-10T23:23:27.588Z,100.00
2023-04-10T23:25:59.197Z,100.00
2023-04-10T23:28:27.853Z,100.00
2023-04-10T23:30:56.112Z,100.00
2023-04-10T23:33:26.093Z,100.00
2023-04-10T23:35:54.747Z,100.00
2023-04-10T23:38:23.689Z,100.00
2023-04-10T23:40:54.705Z,100.00
2023-04-10T23:43:22.928Z,100.00
2023-04-10T23:45:51.366Z,100.00
2023-04-10T23:48:19.720Z,100.00
2023-04-10T23:50:49.484Z,100.00
2023-04-10T23:53:18.482Z,100.00
2023-04-10T23:55:46.928Z,100.00
2023-04-10T23:58:15.632Z,100.00
